sensor_id;sensor_type;location;lat;lon;timestamp;P1;durP1;ratioP1;P2;durP2;ratioP2
19810;SDS011;10065;49.632;8.346;2023-04-07T00:02:00;18.07;;;11.20;;
19810;SDS011;10065;49.632;8.346;2023-04-07T00:04:28;18.40;;;12.17;;
19810;SDS011;10065;49.632;8.346;2023-04-07T00:06:57;17.60;;;11.17;;
19810;SDS011;10065;49.632;8.346;2023-04-07T00:09:24;20.67;;;12.07;;
19810;SDS011;10065;49.632;8.346;2023-04-07T00:11:52;18.13;;;11.63;;
19810;SDS011;10065;49.632;8.346;2023-04-07T00:14:20;18.57;;;11.07;;
19810;SDS011;10065;49.632;8.346;2023-04-07T00:16:47;16.13;;;10.87;;
19810;SDS011;10065;49.632;8.346;2023-04-07T00:19:15;16.57;;;10.67;;
19810;SDS011;10065;49.632;8.346;2023-04-07T00:21:43;18.57;;;11.77;;
19810;SDS011;10065;49.632;8.346;2023-04-07T00:24:12;17.10;;;11.17;;
19810;SDS011;10065;49.632;8.346;2023-04-07T00:26:52;18.97;;;10.70;;
19810;SDS011;10065;49.632;8.346;2023-04-07T00:29:20;15.90;;;10.53;;
19810;SDS011;10065;49.632;8.346;2023-04-07T00:31:47;18.30;;;11.47;;
19810;SDS011;10065;49.632;8.346;2023-04-07T00:34:15;16.70;;;11.50;;
19810;SDS011;10065;49.632;8.346;2023-04-07T00:36:43;15.90;;;11.07;;
19810;SDS011;10065;49.632;8.346;2023-04-07T00:39:18;17.23;;;11.00;;
19810;SDS011;10065;49.632;8.346;2023-04-07T00:41:46;19.43;;;11.90;;
19810;SDS011;10065;49.632;8.346;2023-04-07T00:44:14;17.07;;;10.53;;
19810;SDS011;10065;49.632;8.346;2023-04-07T00:46:42;20.77;;;12.40;;
19810;SDS011;10065;49.632;8.346;2023-04-07T00:49:10;20.13;;;11.90;;
19810;SDS011;10065;49.632;8.346;2023-04-07T00:51:38;18.50;;;12.07;;
19810;SDS011;10065;49.632;8.346;2023-04-07T00:54:06;20.03;;;11.40;;
19810;SDS011;10065;49.632;8.346;2023-04-07T00:56:35;17.07;;;11.60;;
19810;SDS011;10065;49.632;8.346;2023-04-07T00:59:02;17.77;;;11.97;;
19810;SDS011;10065;49.632;8.346;2023-04-07T01:01:31;19.97;;;12.23;;
19810;SDS011;10065;49.632;8.346;2023-04-07T01:04:07;20.37;;;12.90;;
19810;SDS011;10065;49.632;8.346;2023-04-07T01:06:39;19.13;;;11.53;;
19810;SDS011;10065;49.632;8.346;2023-04-07T01:09:15;16.60;;;11.07;;
19810;SDS011;10065;49.632;8.346;2023-04-07T01:11:52;17.00;;;11.07;;
19810;SDS011;10065;49.632;8.346;2023-04-07T01:14:27;20.43;;;12.17;;
19810;SDS011;10065;49.632;8.346;2023-04-07T01:17:03;20.13;;;11.27;;
19810;SDS011;10065;49.632;8.346;2023-04-07T01:19:36;18.87;;;11.43;;
19810;SDS011;10065;49.632;8.346;2023-04-07T01:22:07;17.93;;;11.53;;
19810;SDS011;10065;49.632;8.346;2023-04-07T01:24:43;16.97;;;10.67;;
19810;SDS011;10065;49.632;8.346;2023-04-07T01:27:29;17.60;;;10.70;;
19810;SDS011;10065;49.632;8.346;2023-04-07T01:30:05;16.50;;;10.37;;
19810;SDS011;10065;49.632;8.346;2023-04-07T01:32:37;15.27;;;10.43;;
19810;SDS011;10065;49.632;8.346;2023-04-07T01:35:08;18.70;;;11.53;;
19810;SDS011;10065;49.632;8.346;2023-04-07T01:37:38;21.47;;;11.10;;
19810;SDS011;10065;49.632;8.346;2023-04-07T01:40:07;19.43;;;12.10;;
19810;SDS011;10065;49.632;8.346;2023-04-07T01:42:36;18.10;;;11.37;;
19810;SDS011;10065;49.632;8.346;2023-04-07T01:45:07;17.83;;;11.60;;
19810;SDS011;10065;49.632;8.346;2023-04-07T01:47:36;17.47;;;12.33;;
19810;SDS011;10065;49.632;8.346;2023-04-07T01:50:06;19.23;;;12.03;;
19810;SDS011;10065;49.632;8.346;2023-04-07T01:52:34;17.13;;;11.43;;
19810;SDS011;10065;49.632;8.346;2023-04-07T01:55:03;18.97;;;11.73;;
19810;SDS011;10065;49.632;8.346;2023-04-07T01:57:31;22.43;;;12.20;;
19810;SDS011;10065;49.632;8.346;2023-04-07T01:59:59;18.63;;;12.50;;
19810;SDS011;10065;49.632;8.346;2023-04-07T02:02:28;21.57;;;12.33;;
19810;SDS011;10065;49.632;8.346;2023-04-07T02:04:57;18.93;;;11.47;;
19810;SDS011;10065;49.632;8.346;2023-04-07T02:07:31;18.57;;;12.03;;
19810;SDS011;10065;49.632;8.346;2023-04-07T02:10:06;17.57;;;11.73;;
19810;SDS011;10065;49.632;8.346;2023-04-07T02:12:37;19.43;;;12.93;;
19810;SDS011;10065;49.632;8.346;2023-04-07T02:15:07;17.70;;;12.23;;
19810;SDS011;10065;49.632;8.346;2023-04-07T02:17:40;17.80;;;12.43;;
19810;SDS011;10065;49.632;8.346;2023-04-07T02:20:11;17.30;;;12.23;;
19810;SDS011;10065;49.632;8.346;2023-04-07T02:22:39;20.10;;;11.73;;
19810;SDS011;10065;49.632;8.346;2023-04-07T02:25:19;21.20;;;12.93;;
19810;SDS011;10065;49.632;8.346;2023-04-07T02:27:51;18.13;;;11.97;;
19810;SDS011;10065;49.632;8.346;2023-04-07T02:30:19;18.50;;;12.17;;
19810;SDS011;10065;49.632;8.346;2023-04-07T02:32:49;19.63;;;11.90;;
19810;SDS011;10065;49.632;8.346;2023-04-07T02:35:17;20.57;;;12.17;;
19810;SDS011;10065;49.632;8.346;2023-04-07T02:37:45;18.60;;;12.30;;
19810;SDS011;10065;49.632;8.346;2023-04-07T02:40:13;18.30;;;11.60;;
19810;SDS011;10065;49.632;8.346;2023-04-07T02:42:41;18.90;;;11.70;;
19810;SDS011;10065;49.632;8.346;2023-04-07T02:45:09;18.10;;;12.17;;
19810;SDS011;10065;49.632;8.346;2023-04-07T02:47:37;20.33;;;13.03;;
19810;SDS011;10065;49.632;8.346;2023-04-07T02:50:08;19.40;;;12.23;;
19810;SDS011;10065;49.632;8.346;2023-04-07T02:52:36;20.53;;;11.87;;
19810;SDS011;10065;49.632;8.346;2023-04-07T02:55:04;17.70;;;11.37;;
19810;SDS011;10065;49.632;8.346;2023-04-07T02:57:32;17.13;;;11.57;;
19810;SDS011;10065;49.632;8.346;2023-04-07T03:00:00;18.03;;;11.90;;
19810;SDS011;10065;49.632;8.346;2023-04-07T03:02:28;17.87;;;12.33;;
19810;SDS011;10065;49.632;8.346;2023-04-07T03:04:56;18.97;;;11.53;;
19810;SDS011;10065;49.632;8.346;2023-04-07T03:07:25;18.00;;;12.13;;
19810;SDS011;10065;49.632;8.346;2023-04-07T03:09:53;18.10;;;11.40;;
19810;SDS011;10065;49.632;8.346;2023-04-07T03:12:20;18.10;;;11.33;;
19810;SDS011;10065;49.632;8.346;2023-04-07T03:14:48;20.93;;;12.80;;
19810;SDS011;10065;49.632;8.346;2023-04-07T03:17:16;17.90;;;11.10;;
19810;SDS011;10065;49.632;8.346;2023-04-07T03:19:44;24.93;;;12.93;;
19810;SDS011;10065;49.632;8.346;2023-04-07T03:22:12;21.53;;;11.93;;
19810;SDS011;10065;49.632;8.346;2023-04-07T03:24:41;19.53;;;12.93;;
19810;SDS011;10065;49.632;8.346;2023-04-07T03:27:08;17.97;;;11.80;;
19810;SDS011;10065;49.632;8.346;2023-04-07T03:29:36;22.57;;;12.43;;
19810;SDS011;10065;49.632;8.346;2023-04-07T03:32:04;21.20;;;11.83;;
19810;SDS011;10065;49.632;8.346;2023-04-07T03:34:32;21.17;;;12.93;;
19810;SDS011;10065;49.632;8.346;2023-04-07T03:36:59;17.17;;;11.93;;
19810;SDS011;10065;49.632;8.346;2023-04-07T03:39:27;20.50;;;13.17;;
19810;SDS011;10065;49.632;8.346;2023-04-07T03:41:56;18.80;;;11.83;;
19810;SDS011;10065;49.632;8.346;2023-04-07T03:44:24;19.80;;;11.60;;
19810;SDS011;10065;49.632;8.346;2023-04-07T03:46:52;18.53;;;12.70;;
19810;SDS011;10065;49.632;8.346;2023-04-07T03:49:19;22.30;;;13.40;;
19810;SDS011;10065;49.632;8.346;2023-04-07T03:51:47;20.03;;;12.43;;
19810;SDS011;10065;49.632;8.346;2023-04-07T03:54:15;20.27;;;11.73;;
19810;SDS011;10065;49.632;8.346;2023-04-07T03:56:42;19.60;;;13.03;;
19810;SDS011;10065;49.632;8.346;2023-04-07T03:59:12;18.20;;;12.03;;
19810;SDS011;10065;49.632;8.346;2023-04-07T04:01:39;17.97;;;12.00;;
19810;SDS011;10065;49.632;8.346;2023-04-07T04:04:07;20.97;;;13.43;;
19810;SDS011;10065;49.632;8.346;2023-04-07T04:06:35;19.40;;;12.43;;
19810;SDS011;10065;49.632;8.346;2023-04-07T04:09:03;18.87;;;11.60;;
19810;SDS011;10065;49.632;8.346;2023-04-07T04:11:31;20.53;;;12.03;;
19810;SDS011;10065;49.632;8.346;2023-04-07T04:13:58;18.53;;;12.23;;
19810;SDS011;10065;49.632;8.346;2023-04-07T04:16:27;20.33;;;11.97;;
19810;SDS011;10065;49.632;8.346;2023-04-07T04:18:56;21.97;;;13.80;;
19810;SDS011;10065;49.632;8.346;2023-04-07T04:21:24;19.67;;;13.20;;
19810;SDS011;10065;49.632;8.346;2023-04-07T04:23:52;21.10;;;13.13;;
19810;SDS011;10065;49.632;8.346;2023-04-07T04:26:20;18.67;;;12.73;;
19810;SDS011;10065;49.632;8.346;2023-04-07T04:28:51;21.10;;;13.43;;
19810;SDS011;10065;49.632;8.346;2023-04-07T04:31:18;18.37;;;12.17;;
19810;SDS011;10065;49.632;8.346;2023-04-07T04:33:47;18.87;;;12.10;;
19810;SDS011;10065;49.632;8.346;2023-04-07T04:36:16;19.93;;;12.70;;
19810;SDS011;10065;49.632;8.346;2023-04-07T04:38:43;19.00;;;12.33;;
19810;SDS011;10065;49.632;8.346;2023-04-07T04:41:11;20.83;;;12.17;;
19810;SDS011;10065;49.632;8.346;2023-04-07T04:43:39;20.90;;;12.50;;
19810;SDS011;10065;49.632;8.346;2023-04-07T04:46:07;20.47;;;12.53;;
19810;SDS011;10065;49.632;8.346;2023-04-07T04:48:35;19.70;;;12.97;;
19810;SDS011;10065;49.632;8.346;2023-04-07T04:51:04;20.77;;;11.87;;
19810;SDS011;10065;49.632;8.346;2023-04-07T04:53:33;18.07;;;11.60;;
19810;SDS011;10065;49.632;8.346;2023-04-07T04:56:01;18.67;;;12.40;;
19810;SDS011;10065;49.632;8.346;2023-04-07T04:58:28;18.60;;;12.43;;
19810;SDS011;10065;49.632;8.346;2023-04-07T05:00:56;21.00;;;11.90;;
19810;SDS011;10065;49.632;8.346;2023-04-07T05:03:25;22.43;;;12.77;;
19810;SDS011;10065;49.632;8.346;2023-04-07T05:05:54;20.20;;;12.47;;
19810;SDS011;10065;49.632;8.346;2023-04-07T05:08:23;19.33;;;12.97;;
19810;SDS011;10065;49.632;8.346;2023-04-07T05:10:51;23.80;;;12.43;;
19810;SDS011;10065;49.632;8.346;2023-04-07T05:13:20;19.57;;;12.60;;
19810;SDS011;10065;49.632;8.346;2023-04-07T05:15:47;18.17;;;12.47;;
19810;SDS011;10065;49.632;8.346;2023-04-07T05:18:15;20.53;;;13.50;;
19810;SDS011;10065;49.632;8.346;2023-04-07T05:20:43;17.57;;;11.93;;
19810;SDS011;10065;49.632;8.346;2023-04-07T05:23:11;19.47;;;12.73;;
19810;SDS011;10065;49.632;8.346;2023-04-07T05:25:40;19.30;;;12.37;;
19810;SDS011;10065;49.632;8.346;2023-04-07T05:28:07;18.60;;;12.33;;
19810;SDS011;10065;49.632;8.346;2023-04-07T05:30:35;20.93;;;12.03;;
19810;SDS011;10065;49.632;8.346;2023-04-07T05:33:03;22.10;;;12.33;;
19810;SDS011;10065;49.632;8.346;2023-04-07T05:35:30;16.33;;;11.53;;
19810;SDS011;10065;49.632;8.346;2023-04-07T05:37:58;17.53;;;11.53;;
19810;SDS011;10065;49.632;8.346;2023-04-07T05:40:26;21.47;;;12.63;;
19810;SDS011;10065;49.632;8.346;2023-04-07T05:42:56;19.13;;;12.13;;
19810;SDS011;10065;49.632;8.346;2023-04-07T05:45:24;16.70;;;12.17;;
19810;SDS011;10065;49.632;8.346;2023-04-07T05:47:52;19.53;;;12.50;;
19810;SDS011;10065;49.632;8.346;2023-04-07T05:50:20;18.80;;;12.03;;
19810;SDS011;10065;49.632;8.346;2023-04-07T05:52:47;19.33;;;12.20;;
19810;SDS011;10065;49.632;8.346;2023-04-07T05:55:15;17.83;;;11.07;;
19810;SDS011;10065;49.632;8.346;2023-04-07T05:57:43;18.37;;;11.53;;
19810;SDS011;10065;49.632;8.346;2023-04-07T06:00:13;19.13;;;12.00;;
19810;SDS011;10065;49.632;8.346;2023-04-07T06:02:41;16.67;;;11.43;;
19810;SDS011;10065;49.632;8.346;2023-04-07T06:05:09;18.70;;;12.73;;
19810;SDS011;10065;49.632;8.346;2023-04-07T06:07:37;17.97;;;11.53;;
19810;SDS011;10065;49.632;8.346;2023-04-07T06:10:05;19.80;;;12.50;;
19810;SDS011;10065;49.632;8.346;2023-04-07T06:12:34;17.63;;;11.80;;
19810;SDS011;10065;49.632;8.346;2023-04-07T06:15:02;17.50;;;12.40;;
19810;SDS011;10065;49.632;8.346;2023-04-07T06:17:31;19.63;;;11.57;;
19810;SDS011;10065;49.632;8.346;2023-04-07T06:19:59;19.03;;;11.83;;
19810;SDS011;10065;49.632;8.346;2023-04-07T06:22:26;18.03;;;12.13;;
19810;SDS011;10065;49.632;8.346;2023-04-07T06:24:54;18.40;;;12.03;;
19810;SDS011;10065;49.632;8.346;2023-04-07T06:27:22;18.57;;;12.37;;
19810;SDS011;10065;49.632;8.346;2023-04-07T06:29:49;18.07;;;12.13;;
19810;SDS011;10065;49.632;8.346;2023-04-07T06:32:17;18.23;;;12.37;;
19810;SDS011;10065;49.632;8.346;2023-04-07T06:34:46;17.30;;;11.77;;
19810;SDS011;10065;49.632;8.346;2023-04-07T06:37:14;18.23;;;11.83;;
19810;SDS011;10065;49.632;8.346;2023-04-07T06:39:42;18.77;;;11.40;;
19810;SDS011;10065;49.632;8.346;2023-04-07T06:42:10;19.73;;;12.80;;
19810;SDS011;10065;49.632;8.346;2023-04-07T06:44:38;20.80;;;12.47;;
19810;SDS011;10065;49.632;8.346;2023-04-07T06:47:05;17.03;;;11.13;;
19810;SDS011;10065;49.632;8.346;2023-04-07T06:49:34;17.50;;;10.97;;
19810;SDS011;10065;49.632;8.346;2023-04-07T06:52:04;17.47;;;11.63;;
19810;SDS011;10065;49.632;8.346;2023-04-07T06:54:31;22.33;;;13.37;;
19810;SDS011;10065;49.632;8.346;2023-04-07T06:56:59;18.50;;;12.20;;
19810;SDS011;10065;49.632;8.346;2023-04-07T06:59:27;19.73;;;11.30;;
19810;SDS011;10065;49.632;8.346;2023-04-07T07:01:55;16.17;;;11.97;;
19810;SDS011;10065;49.632;8.346;2023-04-07T07:04:23;17.67;;;11.33;;
19810;SDS011;10065;49.632;8.346;2023-04-07T07:06:51;17.47;;;11.80;;
19810;SDS011;10065;49.632;8.346;2023-04-07T07:09:22;17.70;;;11.87;;
19810;SDS011;10065;49.632;8.346;2023-04-07T07:11:50;18.23;;;11.33;;
19810;SDS011;10065;49.632;8.346;2023-04-07T07:14:17;15.50;;;10.43;;
19810;SDS011;10065;49.632;8.346;2023-04-07T07:16:45;16.20;;;10.50;;
19810;SDS011;10065;49.632;8.346;2023-04-07T07:19:13;18.77;;;11.83;;
19810;SDS011;10065;49.632;8.346;2023-04-07T07:21:41;17.93;;;11.37;;
19810;SDS011;10065;49.632;8.346;2023-04-07T07:24:09;20.73;;;11.47;;
19810;SDS011;10065;49.632;8.346;2023-04-07T07:26:38;21.03;;;11.07;;
19810;SDS011;10065;49.632;8.346;2023-04-07T07:29:09;17.90;;;11.83;;
19810;SDS011;10065;49.632;8.346;2023-04-07T07:31:37;15.43;;;10.87;;
19810;SDS011;10065;49.632;8.346;2023-04-07T07:34:05;15.27;;;10.20;;
19810;SDS011;10065;49.632;8.346;2023-04-07T07:36:32;16.07;;;10.70;;
19810;SDS011;10065;49.632;8.346;2023-04-07T07:39:00;14.03;;;10.33;;
19810;SDS011;10065;49.632;8.346;2023-04-07T07:41:27;15.53;;;9.87;;
19810;SDS011;10065;49.632;8.346;2023-04-07T07:43:57;13.83;;;9.50;;
19810;SDS011;10065;49.632;8.346;2023-04-07T07:46:25;14.40;;;9.57;;
19810;SDS011;10065;49.632;8.346;2023-04-07T07:48:52;16.63;;;10.20;;
19810;SDS011;10065;49.632;8.346;2023-04-07T07:51:20;17.37;;;10.40;;
19810;SDS011;10065;49.632;8.346;2023-04-07T07:53:48;14.90;;;9.50;;
19810;SDS011;10065;49.632;8.346;2023-04-07T07:56:16;13.30;;;9.57;;
19810;SDS011;10065;49.632;8.346;2023-04-07T07:58:44;14.37;;;9.67;;
19810;SDS011;10065;49.632;8.346;2023-04-07T08:01:13;13.13;;;9.13;;
19810;SDS011;10065;49.632;8.346;2023-04-07T08:03:41;16.07;;;9.30;;
19810;SDS011;10065;49.632;8.346;2023-04-07T08:06:09;12.87;;;9.57;;
19810;SDS011;10065;49.632;8.346;2023-04-07T08:08:37;15.53;;;9.57;;
19810;SDS011;10065;49.632;8.346;2023-04-07T08:11:05;13.47;;;9.57;;
19810;SDS011;10065;49.632;8.346;2023-04-07T08:13:32;14.97;;;9.73;;
19810;SDS011;10065;49.632;8.346;2023-04-07T08:16:00;15.40;;;9.73;;
19810;SDS011;10065;49.632;8.346;2023-04-07T08:18:29;16.23;;;8.90;;
19810;SDS011;10065;49.632;8.346;2023-04-07T08:20:57;15.87;;;9.20;;
19810;SDS011;10065;49.632;8.346;2023-04-07T08:23:25;13.20;;;9.47;;
19810;SDS011;10065;49.632;8.346;2023-04-07T08:25:52;14.33;;;9.10;;
19810;SDS011;10065;49.632;8.346;2023-04-07T08:28:20;15.70;;;9.17;;
19810;SDS011;10065;49.632;8.346;2023-04-07T08:30:48;14.33;;;9.10;;
19810;SDS011;10065;49.632;8.346;2023-04-07T08:33:15;14.13;;;9.23;;
19810;SDS011;10065;49.632;8.346;2023-04-07T08:35:45;14.40;;;9.83;;
19810;SDS011;10065;49.632;8.346;2023-04-07T08:38:12;17.20;;;9.93;;
19810;SDS011;10065;49.632;8.346;2023-04-07T08:40:40;14.60;;;9.33;;
19810;SDS011;10065;49.632;8.346;2023-04-07T08:43:08;15.90;;;10.57;;
19810;SDS011;10065;49.632;8.346;2023-04-07T08:45:37;16.53;;;11.30;;
19810;SDS011;10065;49.632;8.346;2023-04-07T08:48:09;13.37;;;8.40;;
19810;SDS011;10065;49.632;8.346;2023-04-07T08:50:45;13.27;;;9.57;;
19810;SDS011;10065;49.632;8.346;2023-04-07T08:53:17;10.50;;;7.57;;
19810;SDS011;10065;49.632;8.346;2023-04-07T08:55:50;10.53;;;6.83;;
19810;SDS011;10065;49.632;8.346;2023-04-07T08:58:19;10.13;;;6.53;;
19810;SDS011;10065;49.632;8.346;2023-04-07T09:00:47;10.93;;;7.13;;
19810;SDS011;10065;49.632;8.346;2023-04-07T09:03:15;8.80;;;5.97;;
19810;SDS011;10065;49.632;8.346;2023-04-07T09:05:46;7.00;;;3.70;;
19810;SDS011;10065;49.632;8.346;2023-04-07T09:08:13;5.13;;;3.27;;
19810;SDS011;10065;49.632;8.346;2023-04-07T09:10:41;5.40;;;3.40;;
19810;SDS011;10065;49.632;8.346;2023-04-07T09:13:11;6.27;;;3.63;;
19810;SDS011;10065;49.632;8.346;2023-04-07T09:15:38;5.70;;;2.83;;
19810;SDS011;10065;49.632;8.346;2023-04-07T09:18:06;4.10;;;2.63;;
19810;SDS011;10065;49.632;8.346;2023-04-07T09:20:55;4.40;;;3.00;;
19810;SDS011;10065;49.632;8.346;2023-04-07T09:23:27;5.03;;;3.07;;
19810;SDS011;10065;49.632;8.346;2023-04-07T09:25:56;8.37;;;3.13;;
19810;SDS011;10065;49.632;8.346;2023-04-07T09:28:37;7.57;;;3.50;;
19810;SDS011;10065;49.632;8.346;2023-04-07T09:31:07;4.53;;;3.10;;
19810;SDS011;10065;49.632;8.346;2023-04-07T09:33:34;5.50;;;3.40;;
19810;SDS011;10065;49.632;8.346;2023-04-07T09:36:04;5.87;;;3.43;;
19810;SDS011;10065;49.632;8.346;2023-04-07T09:38:32;6.60;;;3.87;;
19810;SDS011;10065;49.632;8.346;2023-04-07T09:41:04;5.93;;;3.77;;
19810;SDS011;10065;49.632;8.346;2023-04-07T09:43:37;7.37;;;4.80;;
19810;SDS011;10065;49.632;8.346;2023-04-07T09:46:07;7.07;;;4.63;;
19810;SDS011;10065;49.632;8.346;2023-04-07T09:48:36;10.77;;;6.03;;
19810;SDS011;10065;49.632;8.346;2023-04-07T09:51:06;9.50;;;5.30;;
19810;SDS011;10065;49.632;8.346;2023-04-07T09:53:44;10.27;;;6.50;;
19810;SDS011;10065;49.632;8.346;2023-04-07T09:56:15;8.77;;;5.60;;
19810;SDS011;10065;49.632;8.346;2023-04-07T09:58:44;6.33;;;4.83;;
19810;SDS011;10065;49.632;8.346;2023-04-07T10:01:13;7.47;;;4.80;;
19810;SDS011;10065;49.632;8.346;2023-04-07T10:03:43;7.70;;;4.70;;
19810;SDS011;10065;49.632;8.346;2023-04-07T10:06:14;6.30;;;3.60;;
19810;SDS011;10065;49.632;8.346;2023-04-07T10:08:43;4.23;;;3.00;;
19810;SDS011;10065;49.632;8.346;2023-04-07T10:11:11;6.03;;;2.93;;
19810;SDS011;10065;49.632;8.346;2023-04-07T10:13:39;5.47;;;3.07;;
19810;SDS011;10065;49.632;8.346;2023-04-07T10:16:07;3.97;;;2.47;;
19810;SDS011;10065;49.632;8.346;2023-04-07T10:18:35;4.10;;;2.80;;
19810;SDS011;10065;49.632;8.346;2023-04-07T10:21:03;3.70;;;2.60;;
19810;SDS011;10065;49.632;8.346;2023-04-07T10:23:49;4.60;;;2.80;;
19810;SDS011;10065;49.632;8.346;2023-04-07T10:26:23;4.40;;;2.40;;
19810;SDS011;10065;49.632;8.346;2023-04-07T10:28:54;4.13;;;2.73;;
19810;SDS011;10065;49.632;8.346;2023-04-07T10:31:25;5.87;;;3.80;;
19810;SDS011;10065;49.632;8.346;2023-04-07T10:33:53;5.57;;;2.90;;
19810;SDS011;10065;49.632;8.346;2023-04-07T10:36:22;4.80;;;3.40;;
19810;SDS011;10065;49.632;8.346;2023-04-07T10:41:48;5.73;;;3.10;;
19810;SDS011;10065;49.632;8.346;2023-04-07T10:47:15;4.60;;;3.37;;
19810;SDS011;10065;49.632;8.346;2023-04-07T10:52:47;5.43;;;2.83;;
19810;SDS011;10065;49.632;8.346;2023-04-07T10:55:28;4.63;;;3.00;;
19810;SDS011;10065;49.632;8.346;2023-04-07T11:03:56;4.30;;;2.83;;
19810;SDS011;10065;49.632;8.346;2023-04-07T11:06:26;4.20;;;3.03;;
19810;SDS011;10065;49.632;8.346;2023-04-07T11:08:54;5.90;;;2.97;;
19810;SDS011;10065;49.632;8.346;2023-04-07T11:11:36;5.40;;;3.47;;
19810;SDS011;10065;49.632;8.346;2023-04-07T11:14:05;3.77;;;2.97;;
19810;SDS011;10065;49.632;8.346;2023-04-07T11:16:35;4.57;;;3.40;;
19810;SDS011;10065;49.632;8.346;2023-04-07T11:19:04;6.03;;;3.30;;
19810;SDS011;10065;49.632;8.346;2023-04-07T11:21:32;5.60;;;3.93;;
19810;SDS011;10065;49.632;8.346;2023-04-07T11:24:00;6.97;;;4.37;;
19810;SDS011;10065;49.632;8.346;2023-04-07T11:26:27;5.27;;;3.87;;
19810;SDS011;10065;49.632;8.346;2023-04-07T11:28:57;4.97;;;3.47;;
19810;SDS011;10065;49.632;8.346;2023-04-07T11:31:25;6.03;;;4.17;;
19810;SDS011;10065;49.632;8.346;2023-04-07T11:33:57;5.67;;;4.00;;
19810;SDS011;10065;49.632;8.346;2023-04-07T11:36:27;6.17;;;4.07;;
19810;SDS011;10065;49.632;8.346;2023-04-07T11:38:57;8.03;;;4.37;;
19810;SDS011;10065;49.632;8.346;2023-04-07T11:41:26;7.57;;;4.20;;
19810;SDS011;10065;49.632;8.346;2023-04-07T11:44:06;6.97;;;4.77;;
19810;SDS011;10065;49.632;8.346;2023-04-07T11:46:36;6.60;;;4.70;;
19810;SDS011;10065;49.632;8.346;2023-04-07T11:49:18;6.53;;;4.57;;
19810;SDS011;10065;49.632;8.346;2023-04-07T11:51:46;7.60;;;4.33;;
19810;SDS011;10065;49.632;8.346;2023-04-07T11:54:13;6.47;;;4.53;;
19810;SDS011;10065;49.632;8.346;2023-04-07T11:56:42;7.13;;;4.47;;
19810;SDS011;10065;49.632;8.346;2023-04-07T11:59:20;9.57;;;4.90;;
19810;SDS011;10065;49.632;8.346;2023-04-07T12:01:49;6.20;;;4.40;;
19810;SDS011;10065;49.632;8.346;2023-04-07T12:04:22;6.13;;;4.67;;
19810;SDS011;10065;49.632;8.346;2023-04-07T12:06:50;6.53;;;4.43;;
19810;SDS011;10065;49.632;8.346;2023-04-07T12:09:25;5.97;;;3.67;;
19810;SDS011;10065;49.632;8.346;2023-04-07T12:11:55;6.27;;;4.30;;
19810;SDS011;10065;49.632;8.346;2023-04-07T12:14:25;6.17;;;4.20;;
19810;SDS011;10065;49.632;8.346;2023-04-07T12:16:53;5.77;;;4.07;;
19810;SDS011;10065;49.632;8.346;2023-04-07T12:19:24;5.47;;;3.67;;
19810;SDS011;10065;49.632;8.346;2023-04-07T12:21:53;5.00;;;3.53;;
19810;SDS011;10065;49.632;8.346;2023-04-07T12:24:20;5.47;;;3.30;;
19810;SDS011;10065;49.632;8.346;2023-04-07T12:26:49;5.77;;;3.83;;
19810;SDS011;10065;49.632;8.346;2023-04-07T12:29:16;6.83;;;4.63;;
19810;SDS011;10065;49.632;8.346;2023-04-07T12:31:47;6.30;;;4.67;;
19810;SDS011;10065;49.632;8.346;2023-04-07T12:34:16;6.97;;;4.67;;
19810;SDS011;10065;49.632;8.346;2023-04-07T12:36:44;7.07;;;4.40;;
19810;SDS011;10065;49.632;8.346;2023-04-07T12:39:12;6.73;;;4.37;;
19810;SDS011;10065;49.632;8.346;2023-04-07T12:41:40;5.67;;;3.57;;
19810;SDS011;10065;49.632;8.346;2023-04-07T12:44:08;6.73;;;4.03;;
19810;SDS011;10065;49.632;8.346;2023-04-07T12:46:36;5.33;;;3.33;;
19810;SDS011;10065;49.632;8.346;2023-04-07T12:49:05;4.97;;;3.23;;
19810;SDS011;10065;49.632;8.346;2023-04-07T12:51:32;4.80;;;3.13;;
19810;SDS011;10065;49.632;8.346;2023-04-07T12:54:00;7.90;;;4.20;;
19810;SDS011;10065;49.632;8.346;2023-04-07T12:56:28;6.80;;;4.70;;
19810;SDS011;10065;49.632;8.346;2023-04-07T12:58:56;5.73;;;3.70;;
19810;SDS011;10065;49.632;8.346;2023-04-07T13:01:24;5.97;;;3.87;;
19810;SDS011;10065;49.632;8.346;2023-04-07T13:03:52;5.43;;;3.63;;
19810;SDS011;10065;49.632;8.346;2023-04-07T13:06:21;6.17;;;4.27;;
19810;SDS011;10065;49.632;8.346;2023-04-07T13:08:49;5.33;;;4.00;;
19810;SDS011;10065;49.632;8.346;2023-04-07T13:11:17;6.10;;;4.27;;
19810;SDS011;10065;49.632;8.346;2023-04-07T13:13:45;5.20;;;3.23;;
19810;SDS011;10065;49.632;8.346;2023-04-07T13:16:13;6.77;;;4.40;;
19810;SDS011;10065;49.632;8.346;2023-04-07T13:18:40;6.50;;;4.83;;
19810;SDS011;10065;49.632;8.346;2023-04-07T13:21:08;5.73;;;3.93;;
19810;SDS011;10065;49.632;8.346;2023-04-07T13:23:58;4.97;;;3.47;;
19810;SDS011;10065;49.632;8.346;2023-04-07T13:26:25;4.60;;;3.27;;
19810;SDS011;10065;49.632;8.346;2023-04-07T13:28:53;4.33;;;3.10;;
19810;SDS011;10065;49.632;8.346;2023-04-07T13:31:21;7.27;;;4.57;;
19810;SDS011;10065;49.632;8.346;2023-04-07T13:33:49;4.60;;;3.00;;
19810;SDS011;10065;49.632;8.346;2023-04-07T13:36:17;5.37;;;3.20;;
19810;SDS011;10065;49.632;8.346;2023-04-07T13:38:48;5.87;;;3.00;;
19810;SDS011;10065;49.632;8.346;2023-04-07T13:41:17;4.80;;;3.10;;
19810;SDS011;10065;49.632;8.346;2023-04-07T13:43:44;5.00;;;2.63;;
19810;SDS011;10065;49.632;8.346;2023-04-07T13:46:13;3.03;;;2.10;;
19810;SDS011;10065;49.632;8.346;2023-04-07T13:48:53;2.27;;;1.40;;
19810;SDS011;10065;49.632;8.346;2023-04-07T13:51:21;3.13;;;1.60;;
19810;SDS011;10065;49.632;8.346;2023-04-07T13:53:49;2.33;;;1.70;;
19810;SDS011;10065;49.632;8.346;2023-04-07T13:56:18;2.30;;;1.70;;
19810;SDS011;10065;49.632;8.346;2023-04-07T13:58:47;3.53;;;2.53;;
19810;SDS011;10065;49.632;8.346;2023-04-07T14:01:15;4.17;;;2.53;;
19810;SDS011;10065;49.632;8.346;2023-04-07T14:03:43;4.30;;;2.93;;
19810;SDS011;10065;49.632;8.346;2023-04-07T14:06:11;4.47;;;3.03;;
19810;SDS011;10065;49.632;8.346;2023-04-07T14:08:39;5.20;;;3.07;;
19810;SDS011;10065;49.632;8.346;2023-04-07T14:11:07;6.53;;;3.87;;
19810;SDS011;10065;49.632;8.346;2023-04-07T14:13:36;6.30;;;4.17;;
19810;SDS011;10065;49.632;8.346;2023-04-07T14:16:04;5.83;;;4.30;;
19810;SDS011;10065;49.632;8.346;2023-04-07T14:18:33;6.00;;;4.30;;
19810;SDS011;10065;49.632;8.346;2023-04-07T14:21:01;4.97;;;3.43;;
19810;SDS011;10065;49.632;8.346;2023-04-07T14:23:28;6.60;;;4.40;;
19810;SDS011;10065;49.632;8.346;2023-04-07T14:26:02;6.40;;;4.20;;
19810;SDS011;10065;49.632;8.346;2023-04-07T14:28:30;5.10;;;3.53;;
19810;SDS011;10065;49.632;8.346;2023-04-07T14:31:00;5.73;;;4.03;;
19810;SDS011;10065;49.632;8.346;2023-04-07T14:33:27;7.57;;;4.60;;
19810;SDS011;10065;49.632;8.346;2023-04-07T14:35:55;6.70;;;4.17;;
19810;SDS011;10065;49.632;8.346;2023-04-07T14:38:23;7.17;;;4.00;;
19810;SDS011;10065;49.632;8.346;2023-04-07T14:40:52;5.70;;;4.03;;
19810;SDS011;10065;49.632;8.346;2023-04-07T14:43:20;6.90;;;3.53;;
19810;SDS011;10065;49.632;8.346;2023-04-07T14:45:47;5.77;;;3.63;;
19810;SDS011;10065;49.632;8.346;2023-04-07T14:48:16;7.47;;;4.33;;
19810;SDS011;10065;49.632;8.346;2023-04-07T14:50:44;7.80;;;3.30;;
19810;SDS011;10065;49.632;8.346;2023-04-07T14:53:12;4.40;;;2.87;;
19810;SDS011;10065;49.632;8.346;2023-04-07T14:55:41;7.97;;;3.27;;
19810;SDS011;10065;49.632;8.346;2023-04-07T14:58:08;6.63;;;4.00;;
19810;SDS011;10065;49.632;8.346;2023-04-07T15:00:36;6.00;;;3.93;;